sensor_id;sensor_type;location;lat;lon;timestamp;P1;durP1;ratioP1;P2;durP2;ratioP2
8572;SDS011;4324;42.012;24.872;2022-10-18T00:00:03;5.30;;;4.10;;
8572;SDS011;4324;42.012;24.872;2022-10-18T00:02:31;5.93;;;3.97;;
8572;SDS011;4324;42.012;24.872;2022-10-18T00:04:58;4.40;;;4.00;;
8572;SDS011;4324;42.012;24.872;2022-10-18T00:07:25;5.27;;;3.97;;
8572;SDS011;4324;42.012;24.872;2022-10-18T00:09:52;4.13;;;3.73;;
8572;SDS011;4324;42.012;24.872;2022-10-18T00:12:20;4.60;;;3.73;;
8572;SDS011;4324;42.012;24.872;2022-10-18T00:14:47;8.33;;;3.90;;
8572;SDS011;4324;42.012;24.872;2022-10-18T00:17:15;4.33;;;3.93;;
8572;SDS011;4324;42.012;24.872;2022-10-18T00:19:42;4.23;;;3.80;;
8572;SDS011;4324;42.012;24.872;2022-10-18T00:22:10;3.90;;;3.50;;
8572;SDS011;4324;42.012;24.872;2022-10-18T00:24:37;5.10;;;4.00;;
8572;SDS011;4324;42.012;24.872;2022-10-18T00:27:04;4.20;;;3.80;;
8572;SDS011;4324;42.012;24.872;2022-10-18T00:29:32;5.83;;;4.30;;
8572;SDS011;4324;42.012;24.872;2022-10-18T00:31:59;5.10;;;4.40;;
8572;SDS011;4324;42.012;24.872;2022-10-18T00:34:26;4.50;;;4.10;;
8572;SDS011;4324;42.012;24.872;2022-10-18T00:36:53;5.73;;;3.90;;
8572;SDS011;4324;42.012;24.872;2022-10-18T00:39:21;5.30;;;3.83;;
8572;SDS011;4324;42.012;24.872;2022-10-18T00:41:48;4.83;;;4.03;;
8572;SDS011;4324;42.012;24.872;2022-10-18T00:47:21;4.87;;;3.80;;
8572;SDS011;4324;42.012;24.872;2022-10-18T00:49:49;6.43;;;4.10;;
8572;SDS011;4324;42.012;24.872;2022-10-18T00:52:20;4.10;;;3.70;;
8572;SDS011;4324;42.012;24.872;2022-10-18T00:54:51;4.50;;;4.10;;
8572;SDS011;4324;42.012;24.872;2022-10-18T00:57:20;4.93;;;4.43;;
8572;SDS011;4324;42.012;24.872;2022-10-18T00:59:48;4.43;;;3.77;;
8572;SDS011;4324;42.012;24.872;2022-10-18T01:02:16;4.20;;;3.80;;
8572;SDS011;4324;42.012;24.872;2022-10-18T01:04:45;4.77;;;4.00;;
8572;SDS011;4324;42.012;24.872;2022-10-18T01:07:29;6.17;;;4.23;;
8572;SDS011;4324;42.012;24.872;2022-10-18T01:10:05;5.97;;;4.00;;
8572;SDS011;4324;42.012;24.872;2022-10-18T01:12:43;4.47;;;4.07;;
8572;SDS011;4324;42.012;24.872;2022-10-18T01:15:23;5.97;;;4.20;;
8572;SDS011;4324;42.012;24.872;2022-10-18T01:17:56;4.90;;;3.87;;
8572;SDS011;4324;42.012;24.872;2022-10-18T01:20:56;4.83;;;4.33;;
8572;SDS011;4324;42.012;24.872;2022-10-18T01:23:44;5.97;;;4.80;;
8572;SDS011;4324;42.012;24.872;2022-10-18T01:26:38;7.60;;;4.37;;
8572;SDS011;4324;42.012;24.872;2022-10-18T01:29:21;4.80;;;4.20;;
8572;SDS011;4324;42.012;24.872;2022-10-18T01:31:59;5.03;;;3.80;;
8572;SDS011;4324;42.012;24.872;2022-10-18T01:34:30;6.37;;;4.20;;
8572;SDS011;4324;42.012;24.872;2022-10-18T01:37:00;5.60;;;4.10;;
8572;SDS011;4324;42.012;24.872;2022-10-18T01:39:31;6.60;;;4.27;;
8572;SDS011;4324;42.012;24.872;2022-10-18T01:42:03;4.97;;;4.27;;
8572;SDS011;4324;42.012;24.872;2022-10-18T01:44:33;6.03;;;4.20;;
8572;SDS011;4324;42.012;24.872;2022-10-18T01:47:04;6.57;;;4.73;;
8572;SDS011;4324;42.012;24.872;2022-10-18T01:49:33;4.50;;;4.10;;
8572;SDS011;4324;42.012;24.872;2022-10-18T01:52:00;7.00;;;4.77;;
8572;SDS011;4324;42.012;24.872;2022-10-18T01:54:28;11.27;;;5.00;;
8572;SDS011;4324;42.012;24.872;2022-10-18T01:56:59;5.33;;;4.83;;
8572;SDS011;4324;42.012;24.872;2022-10-18T01:59:34;5.73;;;4.67;;
8572;SDS011;4324;42.012;24.872;2022-10-18T02:02:16;5.70;;;4.47;;
8572;SDS011;4324;42.012;24.872;2022-10-18T02:04:53;5.10;;;4.27;;
8572;SDS011;4324;42.012;24.872;2022-10-18T02:07:49;5.37;;;4.00;;
8572;SDS011;4324;42.012;24.872;2022-10-18T02:10:41;4.60;;;4.20;;
8572;SDS011;4324;42.012;24.872;2022-10-18T02:13:26;8.00;;;4.47;;
8572;SDS011;4324;42.012;24.872;2022-10-18T02:16:00;14.13;;;4.90;;
8572;SDS011;4324;42.012;24.872;2022-10-18T02:18:36;5.17;;;4.07;;
8572;SDS011;4324;42.012;24.872;2022-10-18T02:21:18;9.27;;;4.40;;
8572;SDS011;4324;42.012;24.872;2022-10-18T02:23:52;4.60;;;4.10;;
8572;SDS011;4324;42.012;24.872;2022-10-18T02:26:21;7.27;;;4.27;;
8572;SDS011;4324;42.012;24.872;2022-10-18T02:28:58;6.13;;;4.80;;
8572;SDS011;4324;42.012;24.872;2022-10-18T02:31:42;4.07;;;3.67;;
8572;SDS011;4324;42.012;24.872;2022-10-18T02:34:23;4.70;;;3.97;;
8572;SDS011;4324;42.012;24.872;2022-10-18T02:37:00;6.30;;;5.27;;
8572;SDS011;4324;42.012;24.872;2022-10-18T02:39:35;5.20;;;4.70;;
8572;SDS011;4324;42.012;24.872;2022-10-18T02:42:21;4.90;;;4.40;;
8572;SDS011;4324;42.012;24.872;2022-10-18T02:44:53;8.30;;;5.60;;
8572;SDS011;4324;42.012;24.872;2022-10-18T02:47:25;5.23;;;4.73;;
8572;SDS011;4324;42.012;24.872;2022-10-18T02:50:00;10.70;;;8.20;;
8572;SDS011;4324;42.012;24.872;2022-10-18T02:52:26;8.03;;;6.77;;
8572;SDS011;4324;42.012;24.872;2022-10-18T02:54:53;5.87;;;5.00;;
8572;SDS011;4324;42.012;24.872;2022-10-18T02:57:24;6.17;;;4.73;;
8572;SDS011;4324;42.012;24.872;2022-10-18T03:00:14;5.27;;;4.37;;
8572;SDS011;4324;42.012;24.872;2022-10-18T03:02:45;5.93;;;4.80;;
8572;SDS011;4324;42.012;24.872;2022-10-18T03:05:19;5.13;;;4.57;;
8572;SDS011;4324;42.012;24.872;2022-10-18T03:07:46;6.87;;;4.60;;
8572;SDS011;4324;42.012;24.872;2022-10-18T03:10:19;5.77;;;4.50;;
8572;SDS011;4324;42.012;24.872;2022-10-18T03:12:53;7.00;;;6.30;;
8572;SDS011;4324;42.012;24.872;2022-10-18T03:15:24;5.03;;;4.50;;
8572;SDS011;4324;42.012;24.872;2022-10-18T03:18:03;4.70;;;4.10;;
8572;SDS011;4324;42.012;24.872;2022-10-18T03:20:32;5.80;;;4.10;;
8572;SDS011;4324;42.012;24.872;2022-10-18T03:23:04;5.57;;;4.33;;
8572;SDS011;4324;42.012;24.872;2022-10-18T03:25:38;5.83;;;4.40;;
8572;SDS011;4324;42.012;24.872;2022-10-18T03:28:12;5.30;;;4.80;;
8572;SDS011;4324;42.012;24.872;2022-10-18T03:30:39;5.37;;;4.47;;
8572;SDS011;4324;42.012;24.872;2022-10-18T03:33:12;4.53;;;4.13;;
8572;SDS011;4324;42.012;24.872;2022-10-18T03:35:41;5.00;;;4.43;;
8572;SDS011;4324;42.012;24.872;2022-10-18T03:38:07;5.17;;;4.70;;
8572;SDS011;4324;42.012;24.872;2022-10-18T03:40:34;5.10;;;4.17;;
8572;SDS011;4324;42.012;24.872;2022-10-18T03:43:02;4.70;;;4.23;;
8572;SDS011;4324;42.012;24.872;2022-10-18T03:45:29;5.00;;;4.03;;
8572;SDS011;4324;42.012;24.872;2022-10-18T03:47:56;4.27;;;3.87;;
8572;SDS011;4324;42.012;24.872;2022-10-18T03:50:22;9.50;;;4.83;;
8572;SDS011;4324;42.012;24.872;2022-10-18T03:52:51;6.83;;;4.40;;
8572;SDS011;4324;42.012;24.872;2022-10-18T03:55:18;4.33;;;3.93;;
8572;SDS011;4324;42.012;24.872;2022-10-18T03:57:45;5.83;;;4.30;;
8572;SDS011;4324;42.012;24.872;2022-10-18T04:00:12;7.27;;;5.87;;
8572;SDS011;4324;42.012;24.872;2022-10-18T04:02:39;6.47;;;4.90;;
8572;SDS011;4324;42.012;24.872;2022-10-18T04:05:07;6.87;;;4.93;;
8572;SDS011;4324;42.012;24.872;2022-10-18T04:07:35;5.57;;;5.07;;
8572;SDS011;4324;42.012;24.872;2022-10-18T04:10:03;7.37;;;5.33;;
8572;SDS011;4324;42.012;24.872;2022-10-18T04:12:31;7.67;;;4.57;;
8572;SDS011;4324;42.012;24.872;2022-10-18T04:14:58;7.67;;;4.77;;
8572;SDS011;4324;42.012;24.872;2022-10-18T04:17:25;6.13;;;5.10;;
8572;SDS011;4324;42.012;24.872;2022-10-18T04:19:52;6.50;;;5.07;;
8572;SDS011;4324;42.012;24.872;2022-10-18T04:22:19;6.23;;;4.60;;
8572;SDS011;4324;42.012;24.872;2022-10-18T04:24:46;5.37;;;4.37;;
8572;SDS011;4324;42.012;24.872;2022-10-18T04:27:14;5.50;;;4.20;;
8572;SDS011;4324;42.012;24.872;2022-10-18T04:29:41;6.63;;;5.40;;
8572;SDS011;4324;42.012;24.872;2022-10-18T04:32:08;5.10;;;4.70;;
8572;SDS011;4324;42.012;24.872;2022-10-18T04:34:35;7.30;;;4.67;;
8572;SDS011;4324;42.012;24.872;2022-10-18T04:37:02;5.20;;;4.70;;
8572;SDS011;4324;42.012;24.872;2022-10-18T04:39:29;5.63;;;4.47;;
8572;SDS011;4324;42.012;24.872;2022-10-18T04:41:56;5.67;;;4.97;;
8572;SDS011;4324;42.012;24.872;2022-10-18T04:44:27;6.10;;;4.70;;
8572;SDS011;4324;42.012;24.872;2022-10-18T04:46:54;5.77;;;5.17;;
8572;SDS011;4324;42.012;24.872;2022-10-18T04:49:21;5.53;;;4.90;;
8572;SDS011;4324;42.012;24.872;2022-10-18T04:51:48;4.93;;;4.53;;
8572;SDS011;4324;42.012;24.872;2022-10-18T04:54:14;6.63;;;4.67;;
8572;SDS011;4324;42.012;24.872;2022-10-18T04:56:41;8.00;;;5.50;;
8572;SDS011;4324;42.012;24.872;2022-10-18T04:59:08;4.43;;;4.03;;
8572;SDS011;4324;42.012;24.872;2022-10-18T05:01:37;4.70;;;4.30;;
8572;SDS011;4324;42.012;24.872;2022-10-18T05:04:03;5.40;;;4.90;;
8572;SDS011;4324;42.012;24.872;2022-10-18T05:06:30;5.93;;;4.90;;
8572;SDS011;4324;42.012;24.872;2022-10-18T05:08:57;6.07;;;5.43;;
8572;SDS011;4324;42.012;24.872;2022-10-18T05:11:24;6.80;;;4.53;;
8572;SDS011;4324;42.012;24.872;2022-10-18T05:13:51;7.83;;;5.00;;
8572;SDS011;4324;42.012;24.872;2022-10-18T05:16:18;5.03;;;4.50;;
8572;SDS011;4324;42.012;24.872;2022-10-18T05:18:46;4.67;;;4.27;;
8572;SDS011;4324;42.012;24.872;2022-10-18T05:21:14;4.73;;;4.20;;
8572;SDS011;4324;42.012;24.872;2022-10-18T05:23:41;5.87;;;4.23;;
8572;SDS011;4324;42.012;24.872;2022-10-18T05:26:08;4.90;;;3.70;;
8572;SDS011;4324;42.012;24.872;2022-10-18T05:28:35;6.07;;;4.23;;
8572;SDS011;4324;42.012;24.872;2022-10-18T05:31:03;6.97;;;4.50;;
8572;SDS011;4324;42.012;24.872;2022-10-18T05:33:31;6.40;;;4.47;;
8572;SDS011;4324;42.012;24.872;2022-10-18T05:36:00;4.87;;;4.40;;
8572;SDS011;4324;42.012;24.872;2022-10-18T05:38:27;6.80;;;4.13;;
8572;SDS011;4324;42.012;24.872;2022-10-18T05:40:55;6.80;;;4.03;;
8572;SDS011;4324;42.012;24.872;2022-10-18T05:43:22;5.53;;;4.50;;
8572;SDS011;4324;42.012;24.872;2022-10-18T05:45:49;7.50;;;4.27;;
8572;SDS011;4324;42.012;24.872;2022-10-18T05:48:17;8.07;;;5.20;;
8572;SDS011;4324;42.012;24.872;2022-10-18T05:50:44;10.67;;;7.83;;
8572;SDS011;4324;42.012;24.872;2022-10-18T05:53:12;6.00;;;5.50;;
8572;SDS011;4324;42.012;24.872;2022-10-18T05:55:39;7.57;;;6.53;;
8572;SDS011;4324;42.012;24.872;2022-10-18T05:58:06;8.27;;;6.20;;
8572;SDS011;4324;42.012;24.872;2022-10-18T06:00:33;5.73;;;4.90;;
8572;SDS011;4324;42.012;24.872;2022-10-18T06:02:59;5.93;;;4.43;;
8572;SDS011;4324;42.012;24.872;2022-10-18T06:05:27;7.27;;;4.10;;
8572;SDS011;4324;42.012;24.872;2022-10-18T06:07:54;5.77;;;4.97;;
8572;SDS011;4324;42.012;24.872;2022-10-18T06:10:23;5.23;;;4.47;;
8572;SDS011;4324;42.012;24.872;2022-10-18T06:12:50;6.90;;;5.60;;
8572;SDS011;4324;42.012;24.872;2022-10-18T06:15:17;6.47;;;4.20;;
8572;SDS011;4324;42.012;24.872;2022-10-18T06:17:44;7.57;;;4.37;;
8572;SDS011;4324;42.012;24.872;2022-10-18T06:20:11;10.13;;;4.20;;
8572;SDS011;4324;42.012;24.872;2022-10-18T06:22:38;14.43;;;5.40;;
8572;SDS011;4324;42.012;24.872;2022-10-18T06:25:05;11.07;;;5.30;;
8572;SDS011;4324;42.012;24.872;2022-10-18T06:27:33;8.63;;;4.57;;
8572;SDS011;4324;42.012;24.872;2022-10-18T06:30:00;5.40;;;4.17;;
8572;SDS011;4324;42.012;24.872;2022-10-18T06:32:27;5.33;;;4.13;;
8572;SDS011;4324;42.012;24.872;2022-10-18T06:34:54;4.60;;;4.00;;
8572;SDS011;4324;42.012;24.872;2022-10-18T06:37:23;5.83;;;3.90;;
8572;SDS011;4324;42.012;24.872;2022-10-18T06:39:50;4.47;;;4.07;;
8572;SDS011;4324;42.012;24.872;2022-10-18T06:42:17;4.57;;;4.17;;
8572;SDS011;4324;42.012;24.872;2022-10-18T06:44:45;6.87;;;4.20;;
8572;SDS011;4324;42.012;24.872;2022-10-18T06:47:12;6.10;;;5.50;;
8572;SDS011;4324;42.012;24.872;2022-10-18T06:49:39;6.77;;;5.67;;
8572;SDS011;4324;42.012;24.872;2022-10-18T06:52:05;5.30;;;4.80;;
8572;SDS011;4324;42.012;24.872;2022-10-18T06:54:32;4.97;;;4.47;;
8572;SDS011;4324;42.012;24.872;2022-10-18T06:56:59;7.40;;;6.23;;
8572;SDS011;4324;42.012;24.872;2022-10-18T06:59:27;9.80;;;8.43;;
8572;SDS011;4324;42.012;24.872;2022-10-18T07:01:55;10.97;;;8.10;;
8572;SDS011;4324;42.012;24.872;2022-10-18T07:04:22;8.47;;;7.60;;
8572;SDS011;4324;42.012;24.872;2022-10-18T07:06:51;10.07;;;8.63;;
8572;SDS011;4324;42.012;24.872;2022-10-18T07:09:19;16.37;;;8.63;;
8572;SDS011;4324;42.012;24.872;2022-10-18T07:11:46;8.00;;;7.20;;
8572;SDS011;4324;42.012;24.872;2022-10-18T07:14:13;10.90;;;7.63;;
8572;SDS011;4324;42.012;24.872;2022-10-18T07:16:40;13.67;;;8.67;;
8572;SDS011;4324;42.012;24.872;2022-10-18T07:19:08;13.33;;;8.07;;
8572;SDS011;4324;42.012;24.872;2022-10-18T07:21:35;11.17;;;7.90;;
8572;SDS011;4324;42.012;24.872;2022-10-18T07:24:02;10.70;;;8.00;;
8572;SDS011;4324;42.012;24.872;2022-10-18T07:26:33;11.43;;;9.37;;
8572;SDS011;4324;42.012;24.872;2022-10-18T07:29:03;11.37;;;9.73;;
8572;SDS011;4324;42.012;24.872;2022-10-18T07:31:31;12.50;;;9.03;;
8572;SDS011;4324;42.012;24.872;2022-10-18T07:33:59;10.43;;;8.17;;
8572;SDS011;4324;42.012;24.872;2022-10-18T07:36:27;11.43;;;7.80;;
8572;SDS011;4324;42.012;24.872;2022-10-18T07:38:54;10.53;;;7.70;;
8572;SDS011;4324;42.012;24.872;2022-10-18T07:41:21;9.10;;;7.00;;
8572;SDS011;4324;42.012;24.872;2022-10-18T07:43:49;12.03;;;7.33;;
8572;SDS011;4324;42.012;24.872;2022-10-18T07:46:17;8.33;;;6.70;;
8572;SDS011;4324;42.012;24.872;2022-10-18T07:48:45;7.60;;;6.63;;
8572;SDS011;4324;42.012;24.872;2022-10-18T07:51:13;10.20;;;6.70;;
8572;SDS011;4324;42.012;24.872;2022-10-18T07:53:41;10.13;;;7.80;;
8572;SDS011;4324;42.012;24.872;2022-10-18T07:56:09;9.13;;;7.30;;
8572;SDS011;4324;42.012;24.872;2022-10-18T07:58:40;14.67;;;8.00;;
8572;SDS011;4324;42.012;24.872;2022-10-18T08:01:07;16.70;;;11.93;;
8572;SDS011;4324;42.012;24.872;2022-10-18T08:03:35;12.33;;;8.23;;
8572;SDS011;4324;42.012;24.872;2022-10-18T08:06:03;11.73;;;8.77;;
8572;SDS011;4324;42.012;24.872;2022-10-18T08:08:32;17.57;;;10.33;;
8572;SDS011;4324;42.012;24.872;2022-10-18T08:11:02;14.03;;;7.23;;
8572;SDS011;4324;42.012;24.872;2022-10-18T08:13:30;10.73;;;8.23;;
8572;SDS011;4324;42.012;24.872;2022-10-18T08:16:00;12.57;;;8.03;;
8572;SDS011;4324;42.012;24.872;2022-10-18T08:18:29;14.13;;;7.87;;
8572;SDS011;4324;42.012;24.872;2022-10-18T08:20:58;13.57;;;8.27;;
8572;SDS011;4324;42.012;24.872;2022-10-18T08:23:24;14.23;;;8.30;;
8572;SDS011;4324;42.012;24.872;2022-10-18T08:25:51;10.77;;;7.60;;
8572;SDS011;4324;42.012;24.872;2022-10-18T08:28:19;12.60;;;7.57;;
8572;SDS011;4324;42.012;24.872;2022-10-18T08:30:46;12.20;;;7.40;;
8572;SDS011;4324;42.012;24.872;2022-10-18T08:33:13;11.67;;;7.33;;
8572;SDS011;4324;42.012;24.872;2022-10-18T08:35:40;11.83;;;8.27;;
8572;SDS011;4324;42.012;24.872;2022-10-18T08:38:07;13.27;;;7.80;;
8572;SDS011;4324;42.012;24.872;2022-10-18T08:40:40;12.10;;;7.20;;
8572;SDS011;4324;42.012;24.872;2022-10-18T08:43:10;17.70;;;9.77;;
8572;SDS011;4324;42.012;24.872;2022-10-18T08:45:49;18.17;;;7.57;;
8572;SDS011;4324;42.012;24.872;2022-10-18T08:48:19;16.63;;;7.93;;
8572;SDS011;4324;42.012;24.872;2022-10-18T08:50:51;9.33;;;7.27;;
8572;SDS011;4324;42.012;24.872;2022-10-18T08:53:22;18.50;;;10.90;;
8572;SDS011;4324;42.012;24.872;2022-10-18T08:55:56;13.27;;;8.63;;
8572;SDS011;4324;42.012;24.872;2022-10-18T08:58:28;11.30;;;7.60;;
8572;SDS011;4324;42.012;24.872;2022-10-18T09:01:00;9.80;;;7.13;;
8572;SDS011;4324;42.012;24.872;2022-10-18T09:06:43;11.77;;;7.53;;
8572;SDS011;4324;42.012;24.872;2022-10-18T09:09:20;11.13;;;7.33;;
8572;SDS011;4324;42.012;24.872;2022-10-18T09:11:57;10.93;;;7.10;;
8572;SDS011;4324;42.012;24.872;2022-10-18T09:14:41;12.33;;;7.27;;
8572;SDS011;4324;42.012;24.872;2022-10-18T09:17:44;8.57;;;7.70;;
8572;SDS011;4324;42.012;24.872;2022-10-18T09:20:21;10.87;;;6.77;;
8572;SDS011;4324;42.012;24.872;2022-10-18T09:22:53;8.50;;;7.43;;
8572;SDS011;4324;42.012;24.872;2022-10-18T09:25:23;12.10;;;8.13;;
8572;SDS011;4324;42.012;24.872;2022-10-18T09:27:52;13.20;;;10.13;;
8572;SDS011;4324;42.012;24.872;2022-10-18T09:30:26;9.33;;;7.80;;
8572;SDS011;4324;42.012;24.872;2022-10-18T09:33:08;11.23;;;8.67;;
8572;SDS011;4324;42.012;24.872;2022-10-18T09:35:47;9.07;;;7.30;;
8572;SDS011;4324;42.012;24.872;2022-10-18T09:38:18;12.30;;;8.00;;
8572;SDS011;4324;42.012;24.872;2022-10-18T09:40:50;10.10;;;7.63;;
8572;SDS011;4324;42.012;24.872;2022-10-18T09:43:21;10.27;;;7.53;;
8572;SDS011;4324;42.012;24.872;2022-10-18T09:45:53;9.80;;;7.20;;
8572;SDS011;4324;42.012;24.872;2022-10-18T09:48:25;11.63;;;7.90;;
8572;SDS011;4324;42.012;24.872;2022-10-18T09:50:55;10.20;;;7.50;;
8572;SDS011;4324;42.012;24.872;2022-10-18T09:53:26;9.93;;;7.30;;
8572;SDS011;4324;42.012;24.872;2022-10-18T09:56:01;11.40;;;9.70;;
8572;SDS011;4324;42.012;24.872;2022-10-18T09:58:39;8.83;;;7.80;;
8572;SDS011;4324;42.012;24.872;2022-10-18T10:01:09;9.73;;;7.27;;
8572;SDS011;4324;42.012;24.872;2022-10-18T10:03:39;9.37;;;6.70;;
8572;SDS011;4324;42.012;24.872;2022-10-18T10:06:14;10.77;;;7.43;;
8572;SDS011;4324;42.012;24.872;2022-10-18T10:08:43;12.03;;;10.37;;
8572;SDS011;4324;42.012;24.872;2022-10-18T10:11:27;11.53;;;7.83;;
8572;SDS011;4324;42.012;24.872;2022-10-18T10:14:06;10.67;;;7.37;;
8572;SDS011;4324;42.012;24.872;2022-10-18T10:16:40;7.20;;;6.30;;
8572;SDS011;4324;42.012;24.872;2022-10-18T10:19:16;6.90;;;6.30;;
8572;SDS011;4324;42.012;24.872;2022-10-18T10:21:44;9.53;;;6.07;;
8572;SDS011;4324;42.012;24.872;2022-10-18T10:24:17;8.43;;;6.50;;
8572;SDS011;4324;42.012;24.872;2022-10-18T10:26:48;8.10;;;6.57;;
8572;SDS011;4324;42.012;24.872;2022-10-18T10:32:23;7.50;;;6.20;;
8572;SDS011;4324;42.012;24.872;2022-10-18T10:34:53;14.93;;;11.87;;
8572;SDS011;4324;42.012;24.872;2022-10-18T10:37:28;12.27;;;7.10;;
8572;SDS011;4324;42.012;24.872;2022-10-18T10:45:42;9.70;;;6.07;;
8572;SDS011;4324;42.012;24.872;2022-10-18T10:48:21;7.37;;;5.83;;
8572;SDS011;4324;42.012;24.872;2022-10-18T10:50:53;8.27;;;6.90;;
8572;SDS011;4324;42.012;24.872;2022-10-18T10:53:45;8.17;;;6.30;;
8572;SDS011;4324;42.012;24.872;2022-10-18T10:56:19;8.93;;;6.37;;
8572;SDS011;4324;42.012;24.872;2022-10-18T10:58:48;7.43;;;6.07;;
8572;SDS011;4324;42.012;24.872;2022-10-18T11:01:22;10.43;;;6.00;;
8572;SDS011;4324;42.012;24.872;2022-10-18T11:03:51;7.27;;;5.43;;
8572;SDS011;4324;42.012;24.872;2022-10-18T11:06:36;10.33;;;5.77;;
8572;SDS011;4324;42.012;24.872;2022-10-18T11:09:23;9.27;;;6.43;;
8572;SDS011;4324;42.012;24.872;2022-10-18T11:11:58;10.63;;;6.27;;
8572;SDS011;4324;42.012;24.872;2022-10-18T11:14:32;7.53;;;5.73;;
8572;SDS011;4324;42.012;24.872;2022-10-18T11:17:11;9.50;;;5.90;;
8572;SDS011;4324;42.012;24.872;2022-10-18T11:19:48;9.20;;;6.00;;
8572;SDS011;4324;42.012;24.872;2022-10-18T11:22:31;9.40;;;5.37;;
8572;SDS011;4324;42.012;24.872;2022-10-18T11:25:02;8.83;;;5.90;;
8572;SDS011;4324;42.012;24.872;2022-10-18T11:27:30;11.30;;;5.93;;
8572;SDS011;4324;42.012;24.872;2022-10-18T11:30:13;8.43;;;5.80;;
8572;SDS011;4324;42.012;24.872;2022-10-18T11:33:04;5.97;;;5.07;;
8572;SDS011;4324;42.012;24.872;2022-10-18T11:35:44;7.27;;;6.33;;
8572;SDS011;4324;42.012;24.872;2022-10-18T11:38:27;8.83;;;5.80;;
8572;SDS011;4324;42.012;24.872;2022-10-18T11:41:06;7.87;;;5.53;;
8572;SDS011;4324;42.012;24.872;2022-10-18T11:43:45;8.17;;;5.40;;
8572;SDS011;4324;42.012;24.872;2022-10-18T11:46:19;8.07;;;6.47;;
8572;SDS011;4324;42.012;24.872;2022-10-18T11:49:02;6.47;;;5.53;;
8572;SDS011;4324;42.012;24.872;2022-10-18T11:51:44;11.77;;;8.23;;
8572;SDS011;4324;42.012;24.872;2022-10-18T11:54:28;6.77;;;5.10;;
8572;SDS011;4324;42.012;24.872;2022-10-18T11:57:19;6.50;;;4.90;;
8572;SDS011;4324;42.012;24.872;2022-10-18T12:00:02;8.90;;;5.30;;
8572;SDS011;4324;42.012;24.872;2022-10-18T12:05:37;6.60;;;5.20;;
8572;SDS011;4324;42.012;24.872;2022-10-18T12:08:07;7.63;;;5.30;;
8572;SDS011;4324;42.012;24.872;2022-10-18T12:10:39;19.63;;;15.23;;
8572;SDS011;4324;42.012;24.872;2022-10-18T12:13:11;5.23;;;4.67;;
8572;SDS011;4324;42.012;24.872;2022-10-18T12:15:43;8.40;;;5.80;;
8572;SDS011;4324;42.012;24.872;2022-10-18T12:18:12;5.93;;;4.90;;
8572;SDS011;4324;42.012;24.872;2022-10-18T12:20:42;8.40;;;4.77;;
8572;SDS011;4324;42.012;24.872;2022-10-18T12:23:12;5.70;;;4.63;;
8572;SDS011;4324;42.012;24.872;2022-10-18T12:25:45;6.87;;;4.53;;
8572;SDS011;4324;42.012;24.872;2022-10-18T12:28:19;7.00;;;4.33;;
8572;SDS011;4324;42.012;24.872;2022-10-18T12:30:56;7.07;;;4.67;;
8572;SDS011;4324;42.012;24.872;2022-10-18T12:33:33;4.97;;;4.10;;
8572;SDS011;4324;42.012;24.872;2022-10-18T12:36:05;6.80;;;5.23;;
8572;SDS011;4324;42.012;24.872;2022-10-18T12:38:43;9.13;;;6.70;;
8572;SDS011;4324;42.012;24.872;2022-10-18T12:43:49;14.43;;;12.70;;
8572;SDS011;4324;42.012;24.872;2022-10-18T12:46:17;6.60;;;4.90;;
8572;SDS011;4324;42.012;24.872;2022-10-18T12:48:46;6.50;;;5.90;;
8572;SDS011;4324;42.012;24.872;2022-10-18T12:51:26;4.37;;;3.53;;
8572;SDS011;4324;42.012;24.872;2022-10-18T12:54:07;6.93;;;4.60;;
8572;SDS011;4324;42.012;24.872;2022-10-18T12:56:40;5.10;;;4.13;;
8572;SDS011;4324;42.012;24.872;2022-10-18T13:02:22;4.80;;;4.40;;
8572;SDS011;4324;42.012;24.872;2022-10-18T13:04:54;3.80;;;3.40;;
8572;SDS011;4324;42.012;24.872;2022-10-18T13:07:35;4.07;;;3.67;;
8572;SDS011;4324;42.012;24.872;2022-10-18T13:15:56;7.77;;;4.93;;
8572;SDS011;4324;42.012;24.872;2022-10-18T13:18:31;4.90;;;4.37;;
8572;SDS011;4324;42.012;24.872;2022-10-18T13:21:14;5.53;;;4.70;;
8572;SDS011;4324;42.012;24.872;2022-10-18T13:23:54;7.37;;;4.87;;
8572;SDS011;4324;42.012;24.872;2022-10-18T13:26:34;6.93;;;4.53;;
8572;SDS011;4324;42.012;24.872;2022-10-18T13:29:18;6.73;;;5.20;;
8572;SDS011;4324;42.012;24.872;2022-10-18T13:31:57;6.30;;;5.37;;
8572;SDS011;4324;42.012;24.872;2022-10-18T13:34:31;6.07;;;4.90;;
8572;SDS011;4324;42.012;24.872;2022-10-18T13:37:03;8.70;;;7.27;;
8572;SDS011;4324;42.012;24.872;2022-10-18T13:39:31;8.93;;;4.93;;
8572;SDS011;4324;42.012;24.872;2022-10-18T13:50:59;5.03;;;4.53;;
8572;SDS011;4324;42.012;24.872;2022-10-18T13:53:43;7.47;;;4.63;;
8572;SDS011;4324;42.012;24.872;2022-10-18T13:56:34;7.47;;;4.73;;
8572;SDS011;4324;42.012;24.872;2022-10-18T13:59:30;8.57;;;4.03;;
8572;SDS011;4324;42.012;24.872;2022-10-18T14:05:04;8.63;;;7.07;;
8572;SDS011;4324;42.012;24.872;2022-10-18T14:07:46;4.30;;;3.90;;
8572;SDS011;4324;42.012;24.872;2022-10-18T14:10:18;4.93;;;3.33;;
8572;SDS011;4324;42.012;24.872;2022-10-18T14:12:51;3.90;;;3.50;;
8572;SDS011;4324;42.012;24.872;2022-10-18T14:15:23;8.57;;;4.00;;
8572;SDS011;4324;42.012;24.872;2022-10-18T14:17:54;8.77;;;4.43;;
8572;SDS011;4324;42.012;24.872;2022-10-18T14:20:26;8.80;;;4.50;;
8572;SDS011;4324;42.012;24.872;2022-10-18T14:23:02;4.53;;;4.13;;
8572;SDS011;4324;42.012;24.872;2022-10-18T14:25:35;5.07;;;3.50;;
8572;SDS011;4324;42.012;24.872;2022-10-18T14:28:04;5.63;;;4.50;;
8572;SDS011;4324;42.012;24.872;2022-10-18T14:30:38;6.27;;;3.53;;
8572;SDS011;4324;42.012;24.872;2022-10-18T14:33:22;8.67;;;6.00;;
8572;SDS011;4324;42.012;24.872;2022-10-18T14:35:56;9.07;;;5.97;;
8572;SDS011;4324;42.012;24.872;2022-10-18T14:38:26;8.97;;;6.47;;
8572;SDS011;4324;42.012;24.872;2022-10-18T14:41:02;5.37;;;4.80;;
8572;SDS011;4324;42.012;24.872;2022-10-18T14:43:31;8.70;;;7.87;;
8572;SDS011;4324;42.012;24.872;2022-10-18T14:46:07;11.23;;;9.70;;
8572;SDS011;4324;42.012;24.872;2022-10-18T14:48:36;13.23;;;11.07;;
8572;SDS011;4324;42.012;24.872;2022-10-18T14:51:04;24.57;;;18.27;;
8572;SDS011;4324;42.012;24.872;2022-10-18T14:53:38;13.30;;;10.23;;
8572;SDS011;4324;42.012;24.872;2022-10-18T14:56:06;10.40;;;8.67;;
8572;SDS011;4324;42.012;24.872;2022-10-18T14:58:34;10.27;;;8.17;;
8572;SDS011;4324;42.012;24.872;2022-10-18T15:01:05;12.87;;;9.20;;
8572;SDS011;4324;42.012;24.872;2022-10-18T15:03:33;12.00;;;8.73;;
8572;SDS011;4324;42.012;24.872;2022-10-18T15:06:03;11.33;;;9.33;;
8572;SDS011;4324;42.012;24.872;2022-10-18T15:08:34;14.40;;;9.87;;
8572;SDS011;4324;42.012;24.872;2022-10-18T15:11:06;11.83;;;7.17;;
8572;SDS011;4324;42.012;24.872;2022-10-18T15:13:34;8.07;;;6.87;;
8572;SDS011;4324;42.012;24.872;2022-10-18T15:16:09;7.80;;;5.87;;
8572;SDS011;4324;42.012;24.872;2022-10-18T15:18:42;7.47;;;6.27;;
8572;SDS011;4324;42.012;24.872;2022-10-18T15:21:24;6.80;;;6.20;;
8572;SDS011;4324;42.012;24.872;2022-10-18T15:23:51;10.33;;;6.23;;
8572;SDS011;4324;42.012;24.872;2022-10-18T15:26:22;7.13;;;5.50;;
8572;SDS011;4324;42.012;24.872;2022-10-18T15:28:53;7.97;;;5.57;;
8572;SDS011;4324;42.012;24.872;2022-10-18T15:31:25;7.00;;;6.17;;
8572;SDS011;4324;42.012;24.872;2022-10-18T15:33:54;7.53;;;4.87;;
8572;SDS011;4324;42.012;24.872;2022-10-18T15:36:35;5.73;;;4.60;;
8572;SDS011;4324;42.012;24.872;2022-10-18T15:39:07;8.13;;;6.33;;
8572;SDS011;4324;42.012;24.872;2022-10-18T15:41:45;5.80;;;5.17;;
8572;SDS011;4324;42.012;24.872;2022-10-18T15:44:18;6.30;;;5.20;;
8572;SDS011;4324;42.012;24.872;2022-10-18T15:47:09;6.67;;;4.40;;
8572;SDS011;4324;42.012;24.872;2022-10-18T15:49:52;4.27;;;3.80;;
8572;SDS011;4324;42.012;24.872;2022-10-18T15:52:28;6.33;;;3.97;;
8572;SDS011;4324;42.012;24.872;2022-10-18T15:54:57;5.03;;;4.27;;
8572;SDS011;4324;42.012;24.872;2022-10-18T15:57:26;5.93;;;4.70;;
8572;SDS011;4324;42.012;24.872;2022-10-18T15:59:57;9.10;;;5.37;;
8572;SDS011;4324;42.012;24.872;2022-10-18T16:02:27;5.77;;;4.50;;
8572;SDS011;4324;42.012;24.872;2022-10-18T16:04:55;5.20;;;4.30;;
8572;SDS011;4324;42.012;24.872;2022-10-18T16:07:24;5.20;;;4.33;;